sensor_id;sensor_type;location;lat;lon;timestamp;pressure;altitude;pressure_sealevel;temperature;humidity
76858;BME280;65830;0.000;0.000;2024-02-15T00:00:01;100114.44;;;8.27;56.70
76858;BME280;65830;0.000;0.000;2024-02-15T00:02:29;100102.13;;;8.15;56.23
76858;BME280;65830;0.000;0.000;2024-02-15T00:04:55;100109.97;;;8.04;56.52
76858;BME280;65830;0.000;0.000;2024-02-15T00:07:21;100113.16;;;8.09;56.56
76858;BME280;65830;0.000;0.000;2024-02-15T00:09:48;100108.91;;;8.06;56.48
76858;BME280;65830;0.000;0.000;2024-02-15T00:12:14;100114.31;;;8.05;56.45
76858;BME280;65830;0.000;0.000;2024-02-15T00:14:39;100116.09;;;8.04;56.52
76858;BME280;65830;0.000;0.000;2024-02-15T00:17:05;100119.09;;;8.00;56.89
76858;BME280;65830;0.000;0.000;2024-02-15T00:19:31;100119.91;;;8.13;56.57
76858;BME280;65830;0.000;0.000;2024-02-15T00:21:56;100105.88;;;8.00;56.72
76858;BME280;65830;0.000;0.000;2024-02-15T00:24:22;100107.06;;;7.95;57.02
76858;BME280;65830;0.000;0.000;2024-02-15T00:26:49;100117.44;;;7.86;57.14
76858;BME280;65830;0.000;0.000;2024-02-15T00:29:15;100106.44;;;7.92;56.59
76858;BME280;65830;0.000;0.000;2024-02-15T00:31:40;100101.66;;;7.97;56.50
76858;BME280;65830;0.000;0.000;2024-02-15T00:34:06;100112.63;;;8.04;56.36
76858;BME280;65830;0.000;0.000;2024-02-15T00:36:31;100105.88;;;8.24;55.65
76858;BME280;65830;0.000;0.000;2024-02-15T00:39:00;100105.50;;;8.17;55.70
76858;BME280;65830;0.000;0.000;2024-02-15T00:41:26;100102.75;;;8.19;55.78
76858;BME280;65830;0.000;0.000;2024-02-15T00:43:52;100108.34;;;7.90;56.81
76858;BME280;65830;0.000;0.000;2024-02-15T00:46:17;100103.03;;;8.03;56.98
76858;BME280;65830;0.000;0.000;2024-02-15T00:48:43;100108.53;;;7.87;56.92
76858;BME280;65830;0.000;0.000;2024-02-15T00:51:08;100109.41;;;7.87;56.83
76858;BME280;65830;0.000;0.000;2024-02-15T00:53:34;100094.69;;;7.96;56.80
76858;BME280;65830;0.000;0.000;2024-02-15T00:55:59;100109.16;;;7.90;56.90
76858;BME280;65830;0.000;0.000;2024-02-15T00:58:25;100109.31;;;7.89;56.81
76858;BME280;65830;0.000;0.000;2024-02-15T01:00:52;100113.00;;;7.86;56.59
76858;BME280;65830;0.000;0.000;2024-02-15T01:03:18;100103.84;;;7.79;56.98
76858;BME280;65830;0.000;0.000;2024-02-15T01:05:44;100111.53;;;7.82;56.91
76858;BME280;65830;0.000;0.000;2024-02-15T01:08:10;100105.38;;;8.19;55.97
76858;BME280;65830;0.000;0.000;2024-02-15T01:10:36;100106.41;;;8.05;56.58
76858;BME280;65830;0.000;0.000;2024-02-15T01:13:02;100111.09;;;7.88;56.87
76858;BME280;65830;0.000;0.000;2024-02-15T01:15:27;100101.69;;;7.84;57.16
76858;BME280;65830;0.000;0.000;2024-02-15T01:17:53;100103.69;;;7.81;57.21
76858;BME280;65830;0.000;0.000;2024-02-15T01:20:19;100106.59;;;7.78;57.29
76858;BME280;65830;0.000;0.000;2024-02-15T01:22:46;100098.66;;;7.78;57.20
76858;BME280;65830;0.000;0.000;2024-02-15T01:25:12;100099.31;;;8.05;56.70
76858;BME280;65830;0.000;0.000;2024-02-15T01:27:38;100095.03;;;7.79;56.94
76858;BME280;65830;0.000;0.000;2024-02-15T01:30:03;100086.44;;;7.64;57.54
76858;BME280;65830;0.000;0.000;2024-02-15T01:32:29;100102.63;;;7.59;57.83
76858;BME280;65830;0.000;0.000;2024-02-15T01:34:56;100105.66;;;7.66;57.67
76858;BME280;65830;0.000;0.000;2024-02-15T01:37:22;100101.84;;;7.70;57.49
76858;BME280;65830;0.000;0.000;2024-02-15T01:39:47;100095.19;;;7.64;57.59
76858;BME280;65830;0.000;0.000;2024-02-15T01:42:13;100100.09;;;7.58;57.80
76858;BME280;65830;0.000;0.000;2024-02-15T01:44:42;100102.81;;;7.56;58.05
76858;BME280;65830;0.000;0.000;2024-02-15T01:47:10;100114.47;;;7.53;57.84
76858;BME280;65830;0.000;0.000;2024-02-15T01:49:36;100114.16;;;7.45;58.01
76858;BME280;65830;0.000;0.000;2024-02-15T01:52:02;100121.94;;;7.47;57.93
76858;BME280;65830;0.000;0.000;2024-02-15T01:54:28;100120.38;;;7.44;57.74
76858;BME280;65830;0.000;0.000;2024-02-15T01:56:54;100111.72;;;7.42;58.04
76858;BME280;65830;0.000;0.000;2024-02-15T01:59:19;100119.00;;;7.51;58.02
76858;BME280;65830;0.000;0.000;2024-02-15T02:01:47;100119.22;;;7.48;57.44
76858;BME280;65830;0.000;0.000;2024-02-15T02:04:12;100110.25;;;7.38;57.74
76858;BME280;65830;0.000;0.000;2024-02-15T02:06:38;100110.16;;;7.27;58.21
76858;BME280;65830;0.000;0.000;2024-02-15T02:09:04;100119.84;;;7.13;58.38
76858;BME280;65830;0.000;0.000;2024-02-15T02:11:30;100117.66;;;7.20;58.54
76858;BME280;65830;0.000;0.000;2024-02-15T02:13:55;100112.78;;;7.27;58.32
76858;BME280;65830;0.000;0.000;2024-02-15T02:16:24;100105.72;;;7.14;58.45
76858;BME280;65830;0.000;0.000;2024-02-15T02:18:51;100114.19;;;7.20;58.02
76858;BME280;65830;0.000;0.000;2024-02-15T02:21:17;100113.00;;;7.11;57.97
76858;BME280;65830;0.000;0.000;2024-02-15T02:23:43;100120.28;;;7.20;57.83
76858;BME280;65830;0.000;0.000;2024-02-15T02:26:12;100119.66;;;7.04;58.24
76858;BME280;65830;0.000;0.000;2024-02-15T02:28:37;100129.88;;;6.95;58.37
76858;BME280;65830;0.000;0.000;2024-02-15T02:31:03;100136.34;;;7.04;58.37
76858;BME280;65830;0.000;0.000;2024-02-15T02:33:28;100132.00;;;7.03;57.99
76858;BME280;65830;0.000;0.000;2024-02-15T02:35:54;100130.75;;;6.96;58.66
76858;BME280;65830;0.000;0.000;2024-02-15T02:38:22;100130.72;;;7.09;58.37
76858;BME280;65830;0.000;0.000;2024-02-15T02:40:51;100140.97;;;7.13;58.20
76858;BME280;65830;0.000;0.000;2024-02-15T02:43:17;100146.56;;;6.96;58.61
76858;BME280;65830;0.000;0.000;2024-02-15T02:45:43;100140.97;;;6.88;59.00
76858;BME280;65830;0.000;0.000;2024-02-15T02:48:10;100139.69;;;6.81;59.12
76858;BME280;65830;0.000;0.000;2024-02-15T02:50:37;100133.13;;;6.73;59.18
76858;BME280;65830;0.000;0.000;2024-02-15T02:53:03;100138.72;;;6.82;59.00
76858;BME280;65830;0.000;0.000;2024-02-15T02:55:28;100137.88;;;6.68;59.37
76858;BME280;65830;0.000;0.000;2024-02-15T02:57:54;100142.63;;;6.76;59.42
76858;BME280;65830;0.000;0.000;2024-02-15T03:00:20;100133.97;;;6.74;59.12
76858;BME280;65830;0.000;0.000;2024-02-15T03:02:47;100146.84;;;6.79;58.85
76858;BME280;65830;0.000;0.000;2024-02-15T03:05:12;100133.38;;;6.96;58.82
76858;BME280;65830;0.000;0.000;2024-02-15T03:07:41;100134.97;;;6.86;59.03
76858;BME280;65830;0.000;0.000;2024-02-15T03:10:07;100148.34;;;6.83;59.06
76858;BME280;65830;0.000;0.000;2024-02-15T03:12:34;100140.50;;;6.68;59.06
76858;BME280;65830;0.000;0.000;2024-02-15T03:15:03;100140.66;;;6.92;58.55
76858;BME280;65830;0.000;0.000;2024-02-15T03:17:29;100148.16;;;6.99;58.35
76858;BME280;65830;0.000;0.000;2024-02-15T03:19:57;100148.38;;;7.08;57.98
76858;BME280;65830;0.000;0.000;2024-02-15T03:22:22;100134.41;;;7.19;57.73
76858;BME280;65830;0.000;0.000;2024-02-15T03:24:50;100140.56;;;6.94;58.25
76858;BME280;65830;0.000;0.000;2024-02-15T03:27:16;100145.19;;;7.03;58.61
76858;BME280;65830;0.000;0.000;2024-02-15T03:29:41;100139.91;;;7.03;57.77
76858;BME280;65830;0.000;0.000;2024-02-15T03:32:07;100143.81;;;7.10;57.58
76858;BME280;65830;0.000;0.000;2024-02-15T03:34:32;100133.16;;;6.99;57.88
76858;BME280;65830;0.000;0.000;2024-02-15T03:36:58;100135.69;;;7.01;58.00
76858;BME280;65830;0.000;0.000;2024-02-15T03:39:23;100135.28;;;7.20;57.65
76858;BME280;65830;0.000;0.000;2024-02-15T03:41:49;100149.09;;;7.10;57.99
76858;BME280;65830;0.000;0.000;2024-02-15T03:44:15;100143.81;;;7.23;57.42
76858;BME280;65830;0.000;0.000;2024-02-15T03:46:44;100146.25;;;7.01;58.14
76858;BME280;65830;0.000;0.000;2024-02-15T03:49:16;100142.03;;;6.98;58.14
76858;BME280;65830;0.000;0.000;2024-02-15T03:51:42;100146.25;;;6.88;58.84
76858;BME280;65830;0.000;0.000;2024-02-15T03:54:08;100142.97;;;6.84;58.64
76858;BME280;65830;0.000;0.000;2024-02-15T03:56:34;100159.13;;;6.92;58.34
76858;BME280;65830;0.000;0.000;2024-02-15T03:59:01;100158.41;;;7.16;57.77
76858;BME280;65830;0.000;0.000;2024-02-15T04:01:29;100148.88;;;7.01;57.76
76858;BME280;65830;0.000;0.000;2024-02-15T04:03:59;100155.22;;;6.98;57.82
76858;BME280;65830;0.000;0.000;2024-02-15T04:06:25;100150.69;;;7.13;57.93
76858;BME280;65830;0.000;0.000;2024-02-15T04:08:52;100165.25;;;7.06;57.70
76858;BME280;65830;0.000;0.000;2024-02-15T04:11:18;100163.25;;;6.96;57.98
76858;BME280;65830;0.000;0.000;2024-02-15T04:13:45;100163.47;;;7.06;57.78
76858;BME280;65830;0.000;0.000;2024-02-15T04:16:10;100160.00;;;7.06;57.72
76858;BME280;65830;0.000;0.000;2024-02-15T04:18:36;100157.63;;;7.01;58.08
76858;BME280;65830;0.000;0.000;2024-02-15T04:21:03;100163.34;;;6.95;57.86
76858;BME280;65830;0.000;0.000;2024-02-15T04:23:31;100155.13;;;7.12;57.52
76858;BME280;65830;0.000;0.000;2024-02-15T04:25:57;100150.47;;;7.03;57.57
76858;BME280;65830;0.000;0.000;2024-02-15T04:28:23;100150.66;;;6.87;57.89
76858;BME280;65830;0.000;0.000;2024-02-15T04:30:48;100164.81;;;6.99;57.58
76858;BME280;65830;0.000;0.000;2024-02-15T04:33:14;100161.63;;;6.81;57.98
76858;BME280;65830;0.000;0.000;2024-02-15T04:35:40;100165.22;;;6.93;57.89
76858;BME280;65830;0.000;0.000;2024-02-15T04:38:06;100155.75;;;7.03;57.62
76858;BME280;65830;0.000;0.000;2024-02-15T04:40:33;100156.81;;;7.01;57.20
76858;BME280;65830;0.000;0.000;2024-02-15T04:42:59;100165.44;;;6.90;57.74
76858;BME280;65830;0.000;0.000;2024-02-15T04:45:27;100163.78;;;7.02;57.49
76858;BME280;65830;0.000;0.000;2024-02-15T04:47:59;100170.53;;;7.19;56.94
76858;BME280;65830;0.000;0.000;2024-02-15T04:50:27;100172.03;;;7.10;57.02
76858;BME280;65830;0.000;0.000;2024-02-15T04:52:52;100165.38;;;7.04;59.16
76858;BME280;65830;0.000;0.000;2024-02-15T04:55:18;100172.03;;;7.10;59.80
76858;BME280;65830;0.000;0.000;2024-02-15T04:57:44;100170.13;;;7.38;59.79
76858;BME280;65830;0.000;0.000;2024-02-15T05:00:10;100173.72;;;7.24;57.29
76858;BME280;65830;0.000;0.000;2024-02-15T05:02:38;100173.28;;;7.04;57.12
76858;BME280;65830;0.000;0.000;2024-02-15T05:05:08;100179.81;;;7.11;57.17
76858;BME280;65830;0.000;0.000;2024-02-15T05:07:34;100187.28;;;6.92;57.82
76858;BME280;65830;0.000;0.000;2024-02-15T05:10:03;100176.75;;;6.92;57.68
76858;BME280;65830;0.000;0.000;2024-02-15T05:12:31;100178.56;;;7.04;57.26
76858;BME280;65830;0.000;0.000;2024-02-15T05:14:57;100181.84;;;7.21;57.22
76858;BME280;65830;0.000;0.000;2024-02-15T05:17:22;100174.00;;;7.19;57.03
76858;BME280;65830;0.000;0.000;2024-02-15T05:19:48;100180.16;;;7.20;56.80
76858;BME280;65830;0.000;0.000;2024-02-15T05:22:14;100177.38;;;7.21;56.77
76858;BME280;65830;0.000;0.000;2024-02-15T05:24:40;100186.69;;;7.14;57.36
76858;BME280;65830;0.000;0.000;2024-02-15T05:27:06;100180.22;;;7.05;57.21
76858;BME280;65830;0.000;0.000;2024-02-15T05:29:31;100188.88;;;7.07;57.78
76858;BME280;65830;0.000;0.000;2024-02-15T05:31:59;100183.59;;;7.07;57.90
76858;BME280;65830;0.000;0.000;2024-02-15T05:34:25;100193.66;;;7.02;57.97
76858;BME280;65830;0.000;0.000;2024-02-15T05:36:51;100195.88;;;7.08;58.11
76858;BME280;65830;0.000;0.000;2024-02-15T05:39:17;100198.00;;;7.29;57.02
76858;BME280;65830;0.000;0.000;2024-02-15T05:41:46;100212.53;;;7.09;57.59
76858;BME280;65830;0.000;0.000;2024-02-15T05:44:12;100218.03;;;7.06;57.06
76858;BME280;65830;0.000;0.000;2024-02-15T05:46:39;100215.59;;;7.03;57.63
76858;BME280;65830;0.000;0.000;2024-02-15T05:49:05;100207.81;;;7.27;57.36
76858;BME280;65830;0.000;0.000;2024-02-15T05:51:31;100213.94;;;7.40;56.82
76858;BME280;65830;0.000;0.000;2024-02-15T05:53:57;100206.41;;;7.21;57.11
76858;BME280;65830;0.000;0.000;2024-02-15T05:56:26;100209.50;;;7.28;56.80
76858;BME280;65830;0.000;0.000;2024-02-15T05:58:52;100214.56;;;7.31;57.36
76858;BME280;65830;0.000;0.000;2024-02-15T06:01:17;100207.81;;;7.27;56.90
76858;BME280;65830;0.000;0.000;2024-02-15T06:03:43;100217.00;;;7.34;56.62
76858;BME280;65830;0.000;0.000;2024-02-15T06:06:10;100224.84;;;7.35;56.96
76858;BME280;65830;0.000;0.000;2024-02-15T06:08:37;100229.88;;;7.39;56.40
76858;BME280;65830;0.000;0.000;2024-02-15T06:11:03;100235.91;;;7.28;56.78
76858;BME280;65830;0.000;0.000;2024-02-15T06:13:29;100234.28;;;7.12;57.54
76858;BME280;65830;0.000;0.000;2024-02-15T06:15:55;100247.16;;;7.17;57.38
76858;BME280;65830;0.000;0.000;2024-02-15T06:18:28;100245.41;;;7.18;57.70
76858;BME280;65830;0.000;0.000;2024-02-15T06:20:54;100235.16;;;7.26;57.27
76858;BME280;65830;0.000;0.000;2024-02-15T06:23:22;100230.31;;;7.20;57.50
76858;BME280;65830;0.000;0.000;2024-02-15T06:25:48;100235.34;;;7.23;57.31
76858;BME280;65830;0.000;0.000;2024-02-15T06:28:16;100236.41;;;7.20;57.68
76858;BME280;65830;0.000;0.000;2024-02-15T06:31:00;100244.25;;;7.22;57.48
76858;BME280;65830;0.000;0.000;2024-02-15T06:33:44;100243.72;;;7.42;56.89
76858;BME280;65830;0.000;0.000;2024-02-15T06:36:28;100245.84;;;7.50;56.48
76858;BME280;65830;0.000;0.000;2024-02-15T06:39:12;100251.41;;;7.32;57.30
76858;BME280;65830;0.000;0.000;2024-02-15T06:41:56;100256.06;;;7.29;57.06
76858;BME280;65830;0.000;0.000;2024-02-15T06:44:21;100254.19;;;7.56;56.71
76858;BME280;65830;0.000;0.000;2024-02-15T06:46:49;100261.50;;;7.66;56.46
76858;BME280;65830;0.000;0.000;2024-02-15T06:49:15;100257.06;;;7.79;55.96
76858;BME280;65830;0.000;0.000;2024-02-15T06:51:41;100264.53;;;7.72;56.20
76858;BME280;65830;0.000;0.000;2024-02-15T06:54:07;100264.53;;;7.72;56.12
76858;BME280;65830;0.000;0.000;2024-02-15T06:56:36;100265.81;;;7.67;56.23
76858;BME280;65830;0.000;0.000;2024-02-15T06:59:02;100269.16;;;7.43;56.72
76858;BME280;65830;0.000;0.000;2024-02-15T07:01:28;100260.72;;;7.51;56.77
76858;BME280;65830;0.000;0.000;2024-02-15T07:03:53;100276.50;;;7.78;56.36
76858;BME280;65830;0.000;0.000;2024-02-15T07:06:21;100269.84;;;7.85;55.87
76858;BME280;65830;0.000;0.000;2024-02-15T07:08:47;100272.56;;;7.71;56.29
76858;BME280;65830;0.000;0.000;2024-02-15T07:11:13;100277.97;;;7.69;56.73
76858;BME280;65830;0.000;0.000;2024-02-15T07:13:38;100274.91;;;7.75;56.26
76858;BME280;65830;0.000;0.000;2024-02-15T07:16:07;100275.41;;;7.81;55.80
76858;BME280;65830;0.000;0.000;2024-02-15T07:18:33;100271.50;;;7.86;55.92
76858;BME280;65830;0.000;0.000;2024-02-15T07:20:58;100272.69;;;7.95;55.54
76858;BME280;65830;0.000;0.000;2024-02-15T07:23:26;100273.28;;;7.99;55.57
76858;BME280;65830;0.000;0.000;2024-02-15T07:25:51;100279.75;;;7.94;55.14
76858;BME280;65830;0.000;0.000;2024-02-15T07:28:22;100268.09;;;8.10;55.09
76858;BME280;65830;0.000;0.000;2024-02-15T07:30:47;100270.44;;;8.02;55.62
76858;BME280;65830;0.000;0.000;2024-02-15T07:33:16;100265.75;;;8.18;54.95
76858;BME280;65830;0.000;0.000;2024-02-15T07:35:43;100270.41;;;8.14;54.69
76858;BME280;65830;0.000;0.000;2024-02-15T07:38:09;100274.31;;;8.47;54.23
76858;BME280;65830;0.000;0.000;2024-02-15T07:40:36;100278.03;;;8.19;54.84
76858;BME280;65830;0.000;0.000;2024-02-15T07:43:05;100267.66;;;8.29;54.66
76858;BME280;65830;0.000;0.000;2024-02-15T07:45:31;100264.78;;;8.32;54.94
76858;BME280;65830;0.000;0.000;2024-02-15T07:48:00;100271.66;;;8.47;54.30
76858;BME280;65830;0.000;0.000;2024-02-15T07:50:26;100274.78;;;8.65;52.94
76858;BME280;65830;0.000;0.000;2024-02-15T07:52:52;100264.63;;;8.59;53.40
76858;BME280;65830;0.000;0.000;2024-02-15T07:55:18;100269.56;;;8.27;54.24
76858;BME280;65830;0.000;0.000;2024-02-15T07:57:44;100274.88;;;8.64;53.52
76858;BME280;65830;0.000;0.000;2024-02-15T08:00:11;100272.41;;;8.73;53.15
76858;BME280;65830;0.000;0.000;2024-02-15T08:02:38;100272.56;;;9.07;52.17
76858;BME280;65830;0.000;0.000;2024-02-15T08:05:06;100275.56;;;8.79;52.12
76858;BME280;65830;0.000;0.000;2024-02-15T08:07:40;100281.06;;;8.75;52.45
76858;BME280;65830;0.000;0.000;2024-02-15T08:10:06;100275.59;;;8.66;52.30
76858;BME280;65830;0.000;0.000;2024-02-15T08:12:44;100271.88;;;8.44;53.07
76858;BME280;65830;0.000;0.000;2024-02-15T08:15:10;100271.78;;;8.70;52.84
76858;BME280;65830;0.000;0.000;2024-02-15T08:17:44;100292.56;;;8.63;52.26
76858;BME280;65830;0.000;0.000;2024-02-15T08:20:13;100293.28;;;8.65;52.46
76858;BME280;65830;0.000;0.000;2024-02-15T08:22:39;100271.47;;;8.74;52.19
76858;BME280;65830;0.000;0.000;2024-02-15T08:25:08;100270.78;;;8.84;52.35
76858;BME280;65830;0.000;0.000;2024-02-15T08:27:36;100288.22;;;9.10;52.04
76858;BME280;65830;0.000;0.000;2024-02-15T08:30:07;100276.53;;;9.37;51.06
76858;BME280;65830;0.000;0.000;2024-02-15T08:32:33;100279.81;;;9.52;50.75
76858;BME280;65830;0.000;0.000;2024-02-15T08:34:59;100290.31;;;9.18;51.33
76858;BME280;65830;0.000;0.000;2024-02-15T08:37:24;100284.63;;;9.11;51.96
76858;BME280;65830;0.000;0.000;2024-02-15T08:39:50;100282.25;;;9.20;51.50
76858;BME280;65830;0.000;0.000;2024-02-15T08:42:16;100288.69;;;9.04;51.94
76858;BME280;65830;0.000;0.000;2024-02-15T08:44:41;100288.69;;;9.04;52.07
76858;BME280;65830;0.000;0.000;2024-02-15T08:47:07;100279.28;;;9.00;52.01
76858;BME280;65830;0.000;0.000;2024-02-15T08:49:32;100282.47;;;9.17;51.96
76858;BME280;65830;0.000;0.000;2024-02-15T08:51:58;100291.22;;;8.82;52.17
76858;BME280;65830;0.000;0.000;2024-02-15T08:54:24;100272.53;;;8.96;52.34
76858;BME280;65830;0.000;0.000;2024-02-15T08:56:51;100284.81;;;8.97;52.26
76858;BME280;65830;0.000;0.000;2024-02-15T08:59:17;100273.00;;;9.25;51.59
76858;BME280;65830;0.000;0.000;2024-02-15T09:01:42;100272.69;;;9.41;51.40
76858;BME280;65830;0.000;0.000;2024-02-15T09:04:08;100277.50;;;9.36;51.33
76858;BME280;65830;0.000;0.000;2024-02-15T09:06:34;100274.16;;;9.10;51.35
76858;BME280;65830;0.000;0.000;2024-02-15T09:08:59;100278.94;;;9.40;51.40
76858;BME280;65830;0.000;0.000;2024-02-15T09:11:28;100281.28;;;9.21;51.89
76858;BME280;65830;0.000;0.000;2024-02-15T09:13:54;100279.00;;;9.27;51.66
76858;BME280;65830;0.000;0.000;2024-02-15T09:16:20;100277.50;;;9.47;51.23
76858;BME280;65830;0.000;0.000;2024-02-15T09:18:47;100274.53;;;9.52;51.48
76858;BME280;65830;0.000;0.000;2024-02-15T09:21:12;100258.97;;;9.36;51.64
76858;BME280;65830;0.000;0.000;2024-02-15T09:23:38;100272.88;;;9.27;51.51
76858;BME280;65830;0.000;0.000;2024-02-15T09:26:04;100273.88;;;9.37;51.48
76858;BME280;65830;0.000;0.000;2024-02-15T09:28:29;100269.16;;;9.29;51.28
76858;BME280;65830;0.000;0.000;2024-02-15T09:30:56;100259.56;;;9.40;51.00
76858;BME280;65830;0.000;0.000;2024-02-15T09:33:24;100270.78;;;9.54;50.07
76858;BME280;65830;0.000;0.000;2024-02-15T09:35:51;100256.34;;;9.59;50.06
76858;BME280;65830;0.000;0.000;2024-02-15T09:38:16;100252.41;;;9.76;49.36
76858;BME280;65830;0.000;0.000;2024-02-15T09:40:44;100248.91;;;9.86;49.04
76858;BME280;65830;0.000;0.000;2024-02-15T09:43:09;100252.03;;;9.80;49.82
76858;BME280;65830;0.000;0.000;2024-02-15T09:45:38;100245.84;;;9.57;50.00
76858;BME280;65830;0.000;0.000;2024-02-15T09:48:05;100244.06;;;9.69;49.91
76858;BME280;65830;0.000;0.000;2024-02-15T09:50:32;100240.94;;;9.75;49.80
76858;BME280;65830;0.000;0.000;2024-02-15T09:52:59;100248.31;;;9.71;48.92
76858;BME280;65830;0.000;0.000;2024-02-15T09:55:27;100225.66;;;9.67;49.81
76858;BME280;65830;0.000;0.000;2024-02-15T09:57:54;100222.91;;;9.91;49.24
76858;BME280;65830;0.000;0.000;2024-02-15T10:00:20;100227.72;;;9.98;49.33
76858;BME280;65830;0.000;0.000;2024-02-15T10:02:52;100219.25;;;10.15;49.61
76858;BME280;65830;0.000;0.000;2024-02-15T10:05:18;100226.00;;;9.74;50.13
76858;BME280;65830;0.000;0.000;2024-02-15T10:07:44;100211.44;;;9.91;49.84
76858;BME280;65830;0.000;0.000;2024-02-15T10:10:20;100206.72;;;9.94;49.82
76858;BME280;65830;0.000;0.000;2024-02-15T10:12:46;100207.66;;;10.27;49.30
76858;BME280;65830;0.000;0.000;2024-02-15T10:15:29;100204.97;;;10.61;48.31
76858;BME280;65830;0.000;0.000;2024-02-15T10:17:55;100199.78;;;10.48;49.29
76858;BME280;65830;0.000;0.000;2024-02-15T10:20:22;100200.28;;;10.42;48.83
76858;BME280;65830;0.000;0.000;2024-02-15T10:23:09;100199.78;;;10.48;48.76
76858;BME280;65830;0.000;0.000;2024-02-15T10:25:35;100194.88;;;10.44;48.37
76858;BME280;65830;0.000;0.000;2024-02-15T10:28:02;100190.22;;;10.68;48.07
76858;BME280;65830;0.000;0.000;2024-02-15T10:30:28;100188.63;;;10.45;48.78
76858;BME280;65830;0.000;0.000;2024-02-15T10:32:54;100180.78;;;10.76;48.19
76858;BME280;65830;0.000;0.000;2024-02-15T10:35:22;100180.09;;;10.62;48.04
76858;BME280;65830;0.000;0.000;2024-02-15T10:37:48;100183.97;;;10.58;47.95
76858;BME280;65830;0.000;0.000;2024-02-15T10:40:20;100172.63;;;10.56;48.17
76858;BME280;65830;0.000;0.000;2024-02-15T10:42:48;100173.16;;;10.50;48.08
76858;BME280;65830;0.000;0.000;2024-02-15T10:45:16;100170.81;;;10.89;47.24
76858;BME280;65830;0.000;0.000;2024-02-15T10:47:46;100170.09;;;11.08;46.39
76858;BME280;65830;0.000;0.000;2024-02-15T10:50:16;100163.75;;;10.99;46.93
76858;BME280;65830;0.000;0.000;2024-02-15T10:53:04;100160.63;;;10.94;47.13
76858;BME280;65830;0.000;0.000;2024-02-15T10:55:35;100165.84;;;11.17;46.40
76858;BME280;65830;0.000;0.000;2024-02-15T10:58:01;100154.94;;;11.20;46.27
76858;BME280;65830;0.000;0.000;2024-02-15T11:00:30;100154.75;;;11.11;46.49
76858;BME280;65830;0.000;0.000;2024-02-15T11:03:00;100147.38;;;11.15;45.96
76858;BME280;65830;0.000;0.000;2024-02-15T11:05:27;100139.47;;;11.25;46.04
76858;BME280;65830;0.000;0.000;2024-02-15T11:07:55;100141.50;;;11.42;45.73
76858;BME280;65830;0.000;0.000;2024-02-15T11:10:21;100129.22;;;11.51;45.54
76858;BME280;65830;0.000;0.000;2024-02-15T11:12:47;100136.59;;;11.99;44.56
76858;BME280;65830;0.000;0.000;2024-02-15T11:15:12;100133.00;;;12.29;43.77
76858;BME280;65830;0.000;0.000;2024-02-15T11:17:58;100131.47;;;12.27;43.81
76858;BME280;65830;0.000;0.000;2024-02-15T11:22:59;100122.88;;;12.14;43.80
76858;BME280;65830;0.000;0.000;2024-02-15T11:25:34;100122.50;;;12.57;43.25
76858;BME280;65830;0.000;0.000;2024-02-15T11:30:44;100116.00;;;13.08;42.26
76858;BME280;65830;0.000;0.000;2024-02-15T11:36:08;100104.78;;;12.95;42.34
76858;BME280;65830;0.000;0.000;2024-02-15T11:38:35;100101.00;;;12.88;41.92
76858;BME280;65830;0.000;0.000;2024-02-15T11:48:39;100095.09;;;13.79;40.19
76858;BME280;65830;0.000;0.000;2024-02-15T11:51:05;100095.13;;;13.97;40.01
76858;BME280;65830;0.000;0.000;2024-02-15T11:53:32;100104.63;;;14.27;38.36
76858;BME280;65830;0.000;0.000;2024-02-15T11:56:01;100101.94;;;14.99;37.64
76858;BME280;65830;0.000;0.000;2024-02-15T11:58:27;100088.13;;;16.56;34.96
76858;BME280;65830;0.000;0.000;2024-02-15T12:01:11;100090.44;;;17.64;32.67
76858;BME280;65830;0.000;0.000;2024-02-15T12:03:55;100095.25;;;18.39;31.04
76858;BME280;65830;0.000;0.000;2024-02-15T12:06:40;100081.53;;;18.03;31.50
76858;BME280;65830;0.000;0.000;2024-02-15T12:09:24;100092.03;;;19.20;30.66
76858;BME280;65830;0.000;0.000;2024-02-15T12:12:11;100078.19;;;20.83;27.84
76858;BME280;65830;0.000;0.000;2024-02-15T12:15:05;100077.56;;;21.16;27.21
76858;BME280;65830;0.000;0.000;2024-02-15T12:17:49;100078.84;;;20.64;27.41
76858;BME280;65830;0.000;0.000;2024-02-15T12:20:33;100080.25;;;19.51;29.49
76858;BME280;65830;0.000;0.000;2024-02-15T12:22:59;100074.28;;;20.65;26.93
76858;BME280;65830;0.000;0.000;2024-02-15T12:25:27;100066.16;;;22.04;25.38
76858;BME280;65830;0.000;0.000;2024-02-15T12:27:54;100069.94;;;23.36;23.49
76858;BME280;65830;0.000;0.000;2024-02-15T12:30:20;100077.50;;;23.21;23.08
76858;BME280;65830;0.000;0.000;2024-02-15T12:32:47;100072.72;;;22.90;23.18
76858;BME280;65830;0.000;0.000;2024-02-15T12:35:13;100065.63;;;22.95;23.23
76858;BME280;65830;0.000;0.000;2024-02-15T12:37:44;100071.47;;;22.92;23.88
76858;BME280;65830;0.000;0.000;2024-02-15T12:40:11;100061.88;;;23.23;23.89
76858;BME280;65830;0.000;0.000;2024-02-15T12:42:41;100058.91;;;23.38;23.26
76858;BME280;65830;0.000;0.000;2024-02-15T12:45:07;100070.63;;;23.25;23.74
76858;BME280;65830;0.000;0.000;2024-02-15T12:47:33;100062.16;;;23.67;22.68
76858;BME280;65830;0.000;0.000;2024-02-15T12:49:58;100065.47;;;25.40;21.41
76858;BME280;65830;0.000;0.000;2024-02-15T12:52:38;100065.66;;;26.24;20.04
76858;BME280;65830;0.000;0.000;2024-02-15T12:55:10;100061.03;;;23.74;21.77
76858;BME280;65830;0.000;0.000;2024-02-15T12:57:36;100058.69;;;23.33;22.75
76858;BME280;65830;0.000;0.000;2024-02-15T13:00:02;100059.66;;;23.65;21.95
76858;BME280;65830;0.000;0.000;2024-02-15T13:02:39;100058.66;;;24.30;21.81
76858;BME280;65830;0.000;0.000;2024-02-15T13:05:05;100052.47;;;25.60;20.26
76858;BME280;65830;0.000;0.000;2024-02-15T13:07:30;100058.19;;;25.15;21.05
76858;BME280;65830;0.000;0.000;2024-02-15T13:09:56;100059.38;;;23.02;22.32
76858;BME280;65830;0.000;0.000;2024-02-15T13:12:22;100057.41;;;21.12;25.03
76858;BME280;65830;0.000;0.000;2024-02-15T13:14:48;100044.31;;;21.92;25.06
76858;BME280;65830;0.000;0.000;2024-02-15T13:17:15;100055.66;;;22.36;24.12
76858;BME280;65830;0.000;0.000;2024-02-15T13:19:48;100058.25;;;24.33;21.96
76858;BME280;65830;0.000;0.000;2024-02-15T13:22:14;100057.44;;;23.94;21.76
76858;BME280;65830;0.000;0.000;2024-02-15T13:24:41;100058.72;;;25.79;20.02